Terminal Aerodrome Forecast
Issued by NWS Shreveport, LA

Home | Current Version | Previous Version | Text Only | Print | Product List | Glossary On
Versions: 1 2 3 4 5 6 7 8 9 10 11 12 13 14 15 16 17 18 19
000
FTUS44 KSHV 241700
TAFTXK
TAF
KTXK 241738Z 2418/2518 04006KT P6SM BKN020
     FM250000 07006KT P6SM FEW250
     FM250900 11002KT 2SM BR SKC
     FM251500 14004KT P6SM SKC=

USA.gov is the U.S. government's official web portal to all federal, state and local government web resources and services.